createdAt,value
2023-03-23T15:57:53.566Z,9.50
2023-03-23T16:03:05.486Z,9.60
2023-03-23T16:08:09.514Z,9.43
2023-03-23T16:23:19.218Z,9.07
2023-03-23T16:28:21.785Z,7.95
2023-03-23T16:33:24.814Z,9.93
2023-03-23T16:38:27.616Z,9.02
2023-03-23T16:43:30.705Z,10.77
2023-03-23T16:48:33.511Z,8.77
2023-03-23T16:53:37.139Z,8.75
2023-03-23T16:58:39.941Z,9.10
2023-03-23T17:03:43.968Z,9.95
2023-03-23T17:08:46.965Z,10.23
2023-03-23T17:13:49.532Z,10.57
2023-03-23T17:18:52.275Z,10.52
2023-03-23T17:23:55.123Z,10.10
2023-03-23T17:28:57.802Z,9.30
2023-03-23T17:34:01.167Z,10.18
2023-03-23T17:39:03.817Z,11.35
2023-03-23T17:44:07.282Z,10.57
2023-03-23T17:49:10.468Z,10.90
2023-03-23T17:54:13.818Z,9.38
2023-03-23T17:59:16.937Z,8.05
2023-03-23T18:04:19.776Z,7.28
2023-03-23T18:09:23.125Z,7.35
2023-03-23T18:14:26.077Z,8.07
2023-03-23T18:19:29.244Z,8.40
2023-03-23T18:24:31.920Z,8.05
2023-03-23T18:29:34.395Z,8.48
2023-03-23T18:34:38.155Z,7.82
2023-03-23T18:39:41.035Z,8.73
2023-03-23T18:44:43.636Z,9.30
2023-03-23T18:49:47.682Z,9.30
2023-03-23T18:54:50.517Z,10.45
2023-03-23T18:59:53.139Z,13.93
2023-03-23T19:04:56.190Z,10.95
2023-03-23T19:09:58.954Z,10.00
2023-03-23T19:15:01.497Z,11.18
2023-03-23T19:20:07.210Z,12.45
2023-03-23T19:25:10.422Z,12.35
2023-03-23T19:30:13.494Z,12.05
2023-03-23T19:35:16.657Z,13.13
2023-03-23T19:40:37.456Z,13.32
2023-03-23T19:45:43.318Z,11.82
2023-03-23T19:50:49.158Z,11.90
2023-03-23T19:55:52.409Z,12.02
2023-03-23T20:00:56.188Z,10.88
2023-03-23T20:06:01.270Z,10.02
2023-03-23T20:11:05.555Z,8.45
2023-03-23T20:16:09.059Z,8.07
2023-03-23T20:21:14.537Z,6.78
2023-03-23T20:26:19.518Z,10.07
2023-03-23T20:31:24.499Z,12.93
2023-03-23T20:36:30.072Z,14.00
2023-03-23T20:41:33.316Z,13.32
2023-03-23T20:46:36.190Z,11.63
2023-03-23T20:51:40.291Z,10.23
2023-03-23T21:01:46.932Z,12.40
2023-03-23T21:06:49.724Z,13.63
2023-03-23T21:11:52.597Z,10.65
2023-03-23T21:16:55.643Z,9.50
2023-03-23T21:21:59.251Z,10.93
2023-03-23T21:27:03.223Z,13.38
2023-03-23T21:32:08.717Z,13.10
2023-03-23T21:37:12.489Z,11.38
2023-03-23T21:42:15.157Z,9.60
2023-03-23T21:47:18.478Z,9.68
2023-03-23T21:52:21.231Z,11.02
2023-03-23T21:57:23.909Z,13.90
2023-03-23T22:02:26.893Z,12.05
2023-03-23T22:07:31.540Z,9.98
2023-03-23T22:12:34.363Z,6.90
2023-03-23T22:17:38.223Z,6.95
2023-03-23T22:22:40.939Z,6.30
2023-03-23T22:27:44.994Z,6.10
2023-03-23T22:32:47.772Z,6.07
2023-03-23T22:37:50.857Z,6.38
2023-03-23T22:42:53.568Z,6.97
2023-03-23T22:47:57.868Z,8.50
2023-03-23T22:58:03.060Z,8.60
2023-03-23T23:03:08.916Z,8.13
2023-03-23T23:08:14.139Z,6.70
2023-03-23T23:13:18.340Z,7.47
2023-03-23T23:18:21.586Z,6.15
2023-03-23T23:23:24.745Z,6.07
2023-03-23T23:28:27.865Z,7.82
2023-03-23T23:33:30.954Z,6.65
2023-03-23T23:38:33.832Z,6.85
2023-03-23T23:43:36.732Z,6.13
2023-03-23T23:48:39.343Z,6.53
2023-03-23T23:53:44.381Z,6.35
2023-03-23T23:58:48.376Z,6.40
